sensor_id;sensor_type;location;lat;lon;timestamp;P1;durP1;ratioP1;P2;durP2;ratioP2
16416;SDS011;8317;52.186;5.688;2022-08-11T00:00:56;3.75;;;2.13;;
16416;SDS011;8317;52.186;5.688;2022-08-11T00:03:25;4.90;;;2.20;;
16416;SDS011;8317;52.186;5.688;2022-08-11T00:05:53;2.67;;;2.10;;
16416;SDS011;8317;52.186;5.688;2022-08-11T00:08:21;4.10;;;2.53;;
16416;SDS011;8317;52.186;5.688;2022-08-11T00:10:52;5.10;;;1.85;;
16416;SDS011;8317;52.186;5.688;2022-08-11T00:13:21;3.65;;;2.20;;
16416;SDS011;8317;52.186;5.688;2022-08-11T00:15:48;2.78;;;2.17;;
16416;SDS011;8317;52.186;5.688;2022-08-11T00:18:15;3.58;;;2.22;;
16416;SDS011;8317;52.186;5.688;2022-08-11T00:20:44;3.60;;;2.20;;
16416;SDS011;8317;52.186;5.688;2022-08-11T00:23:12;5.65;;;2.50;;
16416;SDS011;8317;52.186;5.688;2022-08-11T00:25:44;2.70;;;2.38;;
16416;SDS011;8317;52.186;5.688;2022-08-11T00:28:22;2.95;;;2.20;;
16416;SDS011;8317;52.186;5.688;2022-08-11T00:30:53;4.75;;;2.35;;
16416;SDS011;8317;52.186;5.688;2022-08-11T00:33:21;2.78;;;2.40;;
16416;SDS011;8317;52.186;5.688;2022-08-11T00:35:51;3.40;;;2.22;;
16416;SDS011;8317;52.186;5.688;2022-08-11T00:38:25;3.10;;;2.50;;
16416;SDS011;8317;52.186;5.688;2022-08-11T00:40:58;4.45;;;2.53;;
16416;SDS011;8317;52.186;5.688;2022-08-11T00:43:38;6.45;;;2.65;;
16416;SDS011;8317;52.186;5.688;2022-08-11T00:46:16;4.03;;;2.63;;
16416;SDS011;8317;52.186;5.688;2022-08-11T00:48:58;3.17;;;2.35;;
16416;SDS011;8317;52.186;5.688;2022-08-11T00:51:50;4.28;;;2.70;;
16416;SDS011;8317;52.186;5.688;2022-08-11T01:00:31;4.03;;;2.90;;
16416;SDS011;8317;52.186;5.688;2022-08-11T01:03:14;4.07;;;2.53;;
16416;SDS011;8317;52.186;5.688;2022-08-11T01:11:49;3.75;;;2.80;;
16416;SDS011;8317;52.186;5.688;2022-08-11T01:27:32;3.13;;;2.78;;
16416;SDS011;8317;52.186;5.688;2022-08-11T01:30:35;6.65;;;2.70;;
16416;SDS011;8317;52.186;5.688;2022-08-11T01:36:46;5.53;;;3.15;;
16416;SDS011;8317;52.186;5.688;2022-08-11T01:43:07;4.10;;;3.00;;
16416;SDS011;8317;52.186;5.688;2022-08-11T01:46:12;4.68;;;3.40;;
16416;SDS011;8317;52.186;5.688;2022-08-11T01:48:48;4.18;;;2.88;;
16416;SDS011;8317;52.186;5.688;2022-08-11T01:51:25;4.10;;;3.30;;
16416;SDS011;8317;52.186;5.688;2022-08-11T01:54:05;4.07;;;3.42;;
16416;SDS011;8317;52.186;5.688;2022-08-11T01:56:45;3.72;;;3.20;;
16416;SDS011;8317;52.186;5.688;2022-08-11T01:59:23;3.45;;;2.92;;
16416;SDS011;8317;52.186;5.688;2022-08-11T02:05:13;4.10;;;3.70;;
16416;SDS011;8317;52.186;5.688;2022-08-11T02:07:53;3.75;;;3.45;;
16416;SDS011;8317;52.186;5.688;2022-08-11T02:10:31;5.13;;;3.95;;
16416;SDS011;8317;52.186;5.688;2022-08-11T02:13:22;6.78;;;4.25;;
16416;SDS011;8317;52.186;5.688;2022-08-11T02:16:02;4.78;;;3.88;;
16416;SDS011;8317;52.186;5.688;2022-08-11T02:18:39;3.50;;;3.20;;
16416;SDS011;8317;52.186;5.688;2022-08-11T02:21:28;5.68;;;3.25;;
16416;SDS011;8317;52.186;5.688;2022-08-11T02:24:22;5.55;;;3.80;;
16416;SDS011;8317;52.186;5.688;2022-08-11T02:26:58;4.65;;;3.50;;
16416;SDS011;8317;52.186;5.688;2022-08-11T02:29:31;5.60;;;4.20;;
16416;SDS011;8317;52.186;5.688;2022-08-11T02:32:04;5.60;;;3.67;;
16416;SDS011;8317;52.186;5.688;2022-08-11T02:34:58;5.97;;;3.70;;
16416;SDS011;8317;52.186;5.688;2022-08-11T02:37:37;6.95;;;3.70;;
16416;SDS011;8317;52.186;5.688;2022-08-11T02:40:26;7.13;;;4.57;;
16416;SDS011;8317;52.186;5.688;2022-08-11T02:43:07;3.83;;;3.50;;
16416;SDS011;8317;52.186;5.688;2022-08-11T02:45:51;4.10;;;3.70;;
16416;SDS011;8317;52.186;5.688;2022-08-11T02:48:37;7.60;;;3.88;;
16416;SDS011;8317;52.186;5.688;2022-08-11T02:51:34;4.15;;;3.67;;
16416;SDS011;8317;52.186;5.688;2022-08-11T02:54:07;5.72;;;3.80;;
16416;SDS011;8317;52.186;5.688;2022-08-11T02:56:44;4.82;;;4.20;;
16416;SDS011;8317;52.186;5.688;2022-08-11T02:59:22;4.32;;;3.97;;
16416;SDS011;8317;52.186;5.688;2022-08-11T03:02:13;4.10;;;3.70;;
16416;SDS011;8317;52.186;5.688;2022-08-11T03:04:55;6.03;;;3.70;;
16416;SDS011;8317;52.186;5.688;2022-08-11T03:07:30;10.13;;;4.15;;
16416;SDS011;8317;52.186;5.688;2022-08-11T03:10:03;7.32;;;4.63;;
16416;SDS011;8317;52.186;5.688;2022-08-11T03:12:37;4.60;;;4.07;;
16416;SDS011;8317;52.186;5.688;2022-08-11T03:15:28;7.70;;;4.07;;
16416;SDS011;8317;52.186;5.688;2022-08-11T03:18:17;4.20;;;3.80;;
16416;SDS011;8317;52.186;5.688;2022-08-11T03:20:52;4.35;;;3.80;;
16416;SDS011;8317;52.186;5.688;2022-08-11T03:23:28;3.90;;;3.50;;
16416;SDS011;8317;52.186;5.688;2022-08-11T03:26:04;4.03;;;3.72;;
16416;SDS011;8317;52.186;5.688;2022-08-11T03:28:50;5.80;;;3.72;;
16416;SDS011;8317;52.186;5.688;2022-08-11T03:31:23;4.93;;;4.40;;
16416;SDS011;8317;52.186;5.688;2022-08-11T03:33:54;7.90;;;3.83;;
16416;SDS011;8317;52.186;5.688;2022-08-11T03:39:27;5.28;;;4.00;;
16416;SDS011;8317;52.186;5.688;2022-08-11T03:42:09;4.32;;;3.92;;
16416;SDS011;8317;52.186;5.688;2022-08-11T03:44:51;4.78;;;3.80;;
16416;SDS011;8317;52.186;5.688;2022-08-11T03:47:33;10.57;;;4.50;;
16416;SDS011;8317;52.186;5.688;2022-08-11T03:50:15;4.72;;;4.22;;
16416;SDS011;8317;52.186;5.688;2022-08-11T03:53:07;5.80;;;4.47;;
16416;SDS011;8317;52.186;5.688;2022-08-11T03:55:46;4.85;;;4.35;;
16416;SDS011;8317;52.186;5.688;2022-08-11T03:58:42;7.78;;;4.65;;
16416;SDS011;8317;52.186;5.688;2022-08-11T04:04:49;6.53;;;3.70;;
16416;SDS011;8317;52.186;5.688;2022-08-11T04:07:44;8.98;;;4.30;;
16416;SDS011;8317;52.186;5.688;2022-08-11T04:13:53;5.05;;;4.30;;
16416;SDS011;8317;52.186;5.688;2022-08-11T04:17:01;4.80;;;4.30;;
16416;SDS011;8317;52.186;5.688;2022-08-11T04:22:57;4.47;;;3.70;;
16416;SDS011;8317;52.186;5.688;2022-08-11T04:25:56;5.78;;;4.55;;
16416;SDS011;8317;52.186;5.688;2022-08-11T04:28:47;8.32;;;4.57;;
16416;SDS011;8317;52.186;5.688;2022-08-11T04:31:33;5.72;;;4.38;;
16416;SDS011;8317;52.186;5.688;2022-08-11T04:34:14;10.48;;;4.85;;
16416;SDS011;8317;52.186;5.688;2022-08-11T04:52:52;5.95;;;4.88;;
16416;SDS011;8317;52.186;5.688;2022-08-11T04:56:06;9.05;;;5.00;;
16416;SDS011;8317;52.186;5.688;2022-08-11T04:59:05;6.07;;;4.93;;
16416;SDS011;8317;52.186;5.688;2022-08-11T05:05:14;8.20;;;5.05;;
16416;SDS011;8317;52.186;5.688;2022-08-11T05:08:04;6.03;;;5.28;;
16416;SDS011;8317;52.186;5.688;2022-08-11T05:11:21;5.68;;;5.15;;
16416;SDS011;8317;52.186;5.688;2022-08-11T05:14:32;5.82;;;5.22;;
16416;SDS011;8317;52.186;5.688;2022-08-11T05:17:31;8.60;;;5.40;;
16416;SDS011;8317;52.186;5.688;2022-08-11T05:20:22;9.35;;;4.90;;
16416;SDS011;8317;52.186;5.688;2022-08-11T05:23:09;5.30;;;4.60;;
16416;SDS011;8317;52.186;5.688;2022-08-11T05:25:55;7.38;;;4.93;;
16416;SDS011;8317;52.186;5.688;2022-08-11T05:28:43;6.22;;;5.22;;
16416;SDS011;8317;52.186;5.688;2022-08-11T05:31:35;5.00;;;4.50;;
16416;SDS011;8317;52.186;5.688;2022-08-11T05:34:25;6.30;;;4.93;;
16416;SDS011;8317;52.186;5.688;2022-08-11T05:37:12;5.63;;;4.82;;
16416;SDS011;8317;52.186;5.688;2022-08-11T05:39:45;6.10;;;4.80;;
16416;SDS011;8317;52.186;5.688;2022-08-11T05:42:32;6.50;;;4.00;;
16416;SDS011;8317;52.186;5.688;2022-08-11T05:45:20;5.53;;;4.85;;
16416;SDS011;8317;52.186;5.688;2022-08-11T05:48:06;6.55;;;4.93;;
16416;SDS011;8317;52.186;5.688;2022-08-11T05:50:53;5.07;;;4.20;;
16416;SDS011;8317;52.186;5.688;2022-08-11T05:53:47;5.80;;;4.13;;
16416;SDS011;8317;52.186;5.688;2022-08-11T05:56:41;8.00;;;3.92;;
16416;SDS011;8317;52.186;5.688;2022-08-11T05:59:11;6.10;;;3.63;;
16416;SDS011;8317;52.186;5.688;2022-08-11T06:01:39;6.63;;;4.13;;
16416;SDS011;8317;52.186;5.688;2022-08-11T06:04:08;4.72;;;3.80;;
16416;SDS011;8317;52.186;5.688;2022-08-11T06:06:50;5.53;;;4.15;;
16416;SDS011;8317;52.186;5.688;2022-08-11T06:09:20;6.47;;;4.28;;
16416;SDS011;8317;52.186;5.688;2022-08-11T06:11:49;5.47;;;4.03;;
16416;SDS011;8317;52.186;5.688;2022-08-11T06:14:18;7.10;;;4.35;;
16416;SDS011;8317;52.186;5.688;2022-08-11T06:16:48;3.75;;;3.45;;
16416;SDS011;8317;52.186;5.688;2022-08-11T06:19:19;4.50;;;3.67;;
16416;SDS011;8317;52.186;5.688;2022-08-11T06:21:50;5.47;;;3.90;;
16416;SDS011;8317;52.186;5.688;2022-08-11T06:24:18;6.63;;;3.58;;
16416;SDS011;8317;52.186;5.688;2022-08-11T06:26:49;3.30;;;3.00;;
16416;SDS011;8317;52.186;5.688;2022-08-11T06:29:17;4.88;;;3.92;;
16416;SDS011;8317;52.186;5.688;2022-08-11T06:31:49;3.85;;;3.40;;
16416;SDS011;8317;52.186;5.688;2022-08-11T06:34:25;5.53;;;3.33;;
16416;SDS011;8317;52.186;5.688;2022-08-11T06:37:02;7.07;;;3.33;;
16416;SDS011;8317;52.186;5.688;2022-08-11T06:39:45;3.42;;;3.00;;
16416;SDS011;8317;52.186;5.688;2022-08-11T06:42:25;3.63;;;2.85;;
16416;SDS011;8317;52.186;5.688;2022-08-11T06:45:00;5.05;;;2.90;;
16416;SDS011;8317;52.186;5.688;2022-08-11T06:47:32;6.75;;;3.15;;
16416;SDS011;8317;52.186;5.688;2022-08-11T06:50:00;6.60;;;2.72;;
16416;SDS011;8317;52.186;5.688;2022-08-11T06:52:47;2.88;;;2.67;;
16416;SDS011;8317;52.186;5.688;2022-08-11T06:55:20;2.90;;;2.50;;
16416;SDS011;8317;52.186;5.688;2022-08-11T06:58:20;5.68;;;2.63;;
16416;SDS011;8317;52.186;5.688;2022-08-11T07:01:06;3.90;;;2.85;;
16416;SDS011;8317;52.186;5.688;2022-08-11T07:03:38;5.05;;;2.63;;
16416;SDS011;8317;52.186;5.688;2022-08-11T07:06:15;5.60;;;2.90;;
16416;SDS011;8317;52.186;5.688;2022-08-11T07:12:24;4.28;;;2.72;;
16416;SDS011;8317;52.186;5.688;2022-08-11T07:15:20;3.30;;;2.70;;
16416;SDS011;8317;52.186;5.688;2022-08-11T07:18:09;2.60;;;2.33;;
16416;SDS011;8317;52.186;5.688;2022-08-11T07:21:05;3.80;;;2.20;;
16416;SDS011;8317;52.186;5.688;2022-08-11T07:23:55;5.95;;;2.47;;
16416;SDS011;8317;52.186;5.688;2022-08-11T07:26:44;6.22;;;2.40;;
16416;SDS011;8317;52.186;5.688;2022-08-11T07:29:34;3.65;;;2.30;;
16416;SDS011;8317;52.186;5.688;2022-08-11T07:32:07;6.15;;;2.30;;
16416;SDS011;8317;52.186;5.688;2022-08-11T07:34:48;5.80;;;2.42;;
16416;SDS011;8317;52.186;5.688;2022-08-11T07:37:18;11.25;;;2.53;;
16416;SDS011;8317;52.186;5.688;2022-08-11T07:39:48;4.57;;;2.30;;
16416;SDS011;8317;52.186;5.688;2022-08-11T07:42:18;6.47;;;2.17;;
16416;SDS011;8317;52.186;5.688;2022-08-11T07:44:48;5.78;;;2.30;;
16416;SDS011;8317;52.186;5.688;2022-08-11T07:47:35;3.40;;;2.10;;
16416;SDS011;8317;52.186;5.688;2022-08-11T07:50:20;4.18;;;2.10;;
16416;SDS011;8317;52.186;5.688;2022-08-11T07:53:06;7.63;;;2.53;;
16416;SDS011;8317;52.186;5.688;2022-08-11T07:55:33;4.65;;;2.13;;
16416;SDS011;8317;52.186;5.688;2022-08-11T07:58:03;2.40;;;2.20;;
16416;SDS011;8317;52.186;5.688;2022-08-11T08:00:49;3.67;;;2.53;;
16416;SDS011;8317;52.186;5.688;2022-08-11T08:03:36;5.03;;;2.20;;
16416;SDS011;8317;52.186;5.688;2022-08-11T08:06:22;5.68;;;2.42;;
16416;SDS011;8317;52.186;5.688;2022-08-11T08:09:07;3.10;;;2.45;;
16416;SDS011;8317;52.186;5.688;2022-08-11T08:11:55;3.80;;;2.15;;
16416;SDS011;8317;52.186;5.688;2022-08-11T08:14:43;3.03;;;2.17;;
16416;SDS011;8317;52.186;5.688;2022-08-11T08:17:27;2.88;;;2.30;;
16416;SDS011;8317;52.186;5.688;2022-08-11T08:20:13;4.93;;;2.28;;
16416;SDS011;8317;52.186;5.688;2022-08-11T08:22:41;6.47;;;2.50;;
16416;SDS011;8317;52.186;5.688;2022-08-11T08:25:09;10.00;;;2.33;;
16416;SDS011;8317;52.186;5.688;2022-08-11T08:27:36;5.75;;;2.45;;
16416;SDS011;8317;52.186;5.688;2022-08-11T08:30:09;4.47;;;2.45;;
16416;SDS011;8317;52.186;5.688;2022-08-11T08:32:54;3.17;;;2.28;;
16416;SDS011;8317;52.186;5.688;2022-08-11T08:35:25;3.90;;;2.67;;
16416;SDS011;8317;52.186;5.688;2022-08-11T08:37:54;5.28;;;2.20;;
16416;SDS011;8317;52.186;5.688;2022-08-11T08:40:21;4.55;;;2.17;;
16416;SDS011;8317;52.186;5.688;2022-08-11T08:42:49;4.03;;;2.40;;
16416;SDS011;8317;52.186;5.688;2022-08-11T08:45:21;4.35;;;2.50;;
16416;SDS011;8317;52.186;5.688;2022-08-11T08:47:51;5.75;;;2.40;;
16416;SDS011;8317;52.186;5.688;2022-08-11T08:50:23;7.30;;;2.70;;
16416;SDS011;8317;52.186;5.688;2022-08-11T08:53:14;4.50;;;2.03;;
16416;SDS011;8317;52.186;5.688;2022-08-11T08:55:46;3.22;;;2.10;;
16416;SDS011;8317;52.186;5.688;2022-08-11T08:58:15;3.85;;;2.60;;
16416;SDS011;8317;52.186;5.688;2022-08-11T09:00:47;2.08;;;1.90;;
16416;SDS011;8317;52.186;5.688;2022-08-11T09:03:18;6.28;;;2.13;;
16416;SDS011;8317;52.186;5.688;2022-08-11T09:05:46;2.88;;;2.17;;
16416;SDS011;8317;52.186;5.688;2022-08-11T09:08:15;3.45;;;2.17;;
16416;SDS011;8317;52.186;5.688;2022-08-11T09:10:44;6.18;;;2.40;;
16416;SDS011;8317;52.186;5.688;2022-08-11T09:13:32;8.30;;;2.60;;
16416;SDS011;8317;52.186;5.688;2022-08-11T09:16:02;5.72;;;2.58;;
16416;SDS011;8317;52.186;5.688;2022-08-11T09:18:31;2.70;;;2.50;;
16416;SDS011;8317;52.186;5.688;2022-08-11T09:20:58;4.28;;;2.15;;
16416;SDS011;8317;52.186;5.688;2022-08-11T09:23:28;2.63;;;2.33;;
16416;SDS011;8317;52.186;5.688;2022-08-11T09:26:13;5.32;;;2.78;;
16416;SDS011;8317;52.186;5.688;2022-08-11T09:28:58;3.95;;;2.50;;
16416;SDS011;8317;52.186;5.688;2022-08-11T09:31:29;3.42;;;2.30;;
16416;SDS011;8317;52.186;5.688;2022-08-11T09:33:58;4.18;;;2.40;;
16416;SDS011;8317;52.186;5.688;2022-08-11T09:36:26;3.78;;;2.30;;
16416;SDS011;8317;52.186;5.688;2022-08-11T09:39:11;4.50;;;2.95;;
16416;SDS011;8317;52.186;5.688;2022-08-11T09:41:56;2.78;;;2.50;;
16416;SDS011;8317;52.186;5.688;2022-08-11T09:44:24;2.80;;;2.15;;
16416;SDS011;8317;52.186;5.688;2022-08-11T09:47:11;4.78;;;2.42;;
16416;SDS011;8317;52.186;5.688;2022-08-11T09:49:39;5.15;;;2.40;;
16416;SDS011;8317;52.186;5.688;2022-08-11T09:52:08;3.53;;;2.17;;
16416;SDS011;8317;52.186;5.688;2022-08-11T09:54:37;5.05;;;2.60;;
16416;SDS011;8317;52.186;5.688;2022-08-11T09:57:05;7.38;;;2.40;;
16416;SDS011;8317;52.186;5.688;2022-08-11T09:59:50;6.40;;;2.50;;
16416;SDS011;8317;52.186;5.688;2022-08-11T10:02:19;2.40;;;1.98;;
16416;SDS011;8317;52.186;5.688;2022-08-11T10:04:51;6.03;;;1.95;;
16416;SDS011;8317;52.186;5.688;2022-08-11T10:07:43;2.42;;;2.15;;
16416;SDS011;8317;52.186;5.688;2022-08-11T10:10:14;4.85;;;2.15;;
16416;SDS011;8317;52.186;5.688;2022-08-11T10:12:46;4.43;;;1.90;;
16416;SDS011;8317;52.186;5.688;2022-08-11T10:15:16;2.67;;;2.00;;
16416;SDS011;8317;52.186;5.688;2022-08-11T10:18:01;5.00;;;2.15;;
16416;SDS011;8317;52.186;5.688;2022-08-11T10:20:49;3.00;;;2.33;;
16416;SDS011;8317;52.186;5.688;2022-08-11T10:23:18;2.15;;;1.60;;
16416;SDS011;8317;52.186;5.688;2022-08-11T10:26:03;4.80;;;1.80;;
16416;SDS011;8317;52.186;5.688;2022-08-11T10:28:49;4.88;;;2.10;;
16416;SDS011;8317;52.186;5.688;2022-08-11T10:31:18;2.03;;;1.80;;
16416;SDS011;8317;52.186;5.688;2022-08-11T10:34:04;6.00;;;2.20;;
16416;SDS011;8317;52.186;5.688;2022-08-11T10:36:34;2.75;;;2.05;;
16416;SDS011;8317;52.186;5.688;2022-08-11T10:39:07;2.65;;;1.77;;
16416;SDS011;8317;52.186;5.688;2022-08-11T10:41:41;3.85;;;2.33;;
16416;SDS011;8317;52.186;5.688;2022-08-11T10:44:28;2.42;;;1.88;;
16416;SDS011;8317;52.186;5.688;2022-08-11T10:46:57;3.97;;;1.90;;
16416;SDS011;8317;52.186;5.688;2022-08-11T10:49:44;4.78;;;1.85;;
16416;SDS011;8317;52.186;5.688;2022-08-11T10:52:33;4.78;;;1.90;;
16416;SDS011;8317;52.186;5.688;2022-08-11T10:55:18;6.78;;;2.00;;
16416;SDS011;8317;52.186;5.688;2022-08-11T10:58:03;3.88;;;1.85;;
16416;SDS011;8317;52.186;5.688;2022-08-11T11:00:48;6.40;;;2.40;;
16416;SDS011;8317;52.186;5.688;2022-08-11T11:03:16;2.47;;;1.73;;
16416;SDS011;8317;52.186;5.688;2022-08-11T11:05:44;3.63;;;1.75;;
16416;SDS011;8317;52.186;5.688;2022-08-11T11:08:13;5.20;;;1.83;;
16416;SDS011;8317;52.186;5.688;2022-08-11T11:10:56;4.57;;;2.30;;
16416;SDS011;8317;52.186;5.688;2022-08-11T11:13:24;3.03;;;2.30;;
16416;SDS011;8317;52.186;5.688;2022-08-11T11:16:09;3.88;;;1.85;;
16416;SDS011;8317;52.186;5.688;2022-08-11T11:19:03;2.53;;;1.95;;
16416;SDS011;8317;52.186;5.688;2022-08-11T11:21:35;3.10;;;1.52;;
16416;SDS011;8317;52.186;5.688;2022-08-11T11:24:08;5.45;;;1.70;;
16416;SDS011;8317;52.186;5.688;2022-08-11T11:26:40;5.32;;;1.58;;
16416;SDS011;8317;52.186;5.688;2022-08-11T11:32:26;2.30;;;1.70;;
16416;SDS011;8317;52.186;5.688;2022-08-11T11:35:10;2.88;;;1.63;;
16416;SDS011;8317;52.186;5.688;2022-08-11T11:37:45;2.10;;;1.52;;
16416;SDS011;8317;52.186;5.688;2022-08-11T11:40:16;3.95;;;1.77;;
16416;SDS011;8317;52.186;5.688;2022-08-11T11:42:45;3.40;;;1.63;;
16416;SDS011;8317;52.186;5.688;2022-08-11T11:45:15;2.63;;;1.75;;
16416;SDS011;8317;52.186;5.688;2022-08-11T11:47:43;3.95;;;1.73;;
16416;SDS011;8317;52.186;5.688;2022-08-11T11:50:13;5.40;;;2.03;;
16416;SDS011;8317;52.186;5.688;2022-08-11T11:52:41;2.72;;;1.65;;
16416;SDS011;8317;52.186;5.688;2022-08-11T11:55:10;5.72;;;2.10;;
16416;SDS011;8317;52.186;5.688;2022-08-11T11:57:37;3.40;;;1.90;;
16416;SDS011;8317;52.186;5.688;2022-08-11T12:00:21;3.67;;;1.85;;
16416;SDS011;8317;52.186;5.688;2022-08-11T12:03:07;4.63;;;1.95;;
16416;SDS011;8317;52.186;5.688;2022-08-11T12:05:36;2.03;;;1.75;;
16416;SDS011;8317;52.186;5.688;2022-08-11T12:08:04;2.45;;;1.80;;
16416;SDS011;8317;52.186;5.688;2022-08-11T12:10:40;3.63;;;1.73;;
16416;SDS011;8317;52.186;5.688;2022-08-11T12:13:10;2.67;;;1.50;;
16416;SDS011;8317;52.186;5.688;2022-08-11T12:15:56;5.25;;;1.63;;
16416;SDS011;8317;52.186;5.688;2022-08-11T12:18:25;5.38;;;2.08;;
16416;SDS011;8317;52.186;5.688;2022-08-11T12:20:52;3.58;;;1.75;;
16416;SDS011;8317;52.186;5.688;2022-08-11T12:23:19;3.83;;;2.10;;
16416;SDS011;8317;52.186;5.688;2022-08-11T12:26:05;6.75;;;2.17;;
16416;SDS011;8317;52.186;5.688;2022-08-11T12:28:50;2.95;;;1.70;;
16416;SDS011;8317;52.186;5.688;2022-08-11T12:31:17;6.63;;;2.20;;
16416;SDS011;8317;52.186;5.688;2022-08-11T12:33:49;3.40;;;1.83;;
16416;SDS011;8317;52.186;5.688;2022-08-11T12:36:17;5.95;;;2.28;;
16416;SDS011;8317;52.186;5.688;2022-08-11T12:38:46;2.70;;;1.60;;
16416;SDS011;8317;52.186;5.688;2022-08-11T12:41:18;3.00;;;1.80;;
16416;SDS011;8317;52.186;5.688;2022-08-11T12:44:04;2.67;;;1.73;;
16416;SDS011;8317;52.186;5.688;2022-08-11T12:47:00;4.15;;;2.00;;
16416;SDS011;8317;52.186;5.688;2022-08-11T12:49:29;2.35;;;2.08;;
16416;SDS011;8317;52.186;5.688;2022-08-11T12:52:18;1.85;;;1.75;;
16416;SDS011;8317;52.186;5.688;2022-08-11T12:54:56;2.53;;;1.80;;
16416;SDS011;8317;52.186;5.688;2022-08-11T12:57:28;4.10;;;1.80;;
16416;SDS011;8317;52.186;5.688;2022-08-11T13:00:15;4.13;;;1.85;;
16416;SDS011;8317;52.186;5.688;2022-08-11T13:03:00;2.97;;;1.90;;
16416;SDS011;8317;52.186;5.688;2022-08-11T13:05:46;2.60;;;1.98;;
16416;SDS011;8317;52.186;5.688;2022-08-11T13:08:14;2.40;;;1.67;;
16416;SDS011;8317;52.186;5.688;2022-08-11T13:10:42;2.22;;;1.83;;
16416;SDS011;8317;52.186;5.688;2022-08-11T13:13:29;2.17;;;1.90;;
16416;SDS011;8317;52.186;5.688;2022-08-11T13:15:57;2.15;;;2.00;;
16416;SDS011;8317;52.186;5.688;2022-08-11T13:18:24;6.90;;;2.05;;
16416;SDS011;8317;52.186;5.688;2022-08-11T13:20:52;3.00;;;1.83;;
16416;SDS011;8317;52.186;5.688;2022-08-11T13:23:20;3.33;;;1.90;;
16416;SDS011;8317;52.186;5.688;2022-08-11T13:25:49;3.13;;;1.65;;
16416;SDS011;8317;52.186;5.688;2022-08-11T13:28:19;3.97;;;2.00;;
16416;SDS011;8317;52.186;5.688;2022-08-11T13:30:49;3.33;;;1.92;;
16416;SDS011;8317;52.186;5.688;2022-08-11T13:33:34;2.10;;;1.90;;
16416;SDS011;8317;52.186;5.688;2022-08-11T13:36:05;6.63;;;1.80;;
16416;SDS011;8317;52.186;5.688;2022-08-11T13:38:33;1.75;;;1.65;;
16416;SDS011;8317;52.186;5.688;2022-08-11T13:41:01;2.30;;;1.90;;
16416;SDS011;8317;52.186;5.688;2022-08-11T13:43:50;2.50;;;2.03;;
16416;SDS011;8317;52.186;5.688;2022-08-11T13:46:19;3.33;;;1.95;;
16416;SDS011;8317;52.186;5.688;2022-08-11T13:48:48;1.90;;;1.70;;
16416;SDS011;8317;52.186;5.688;2022-08-11T13:51:17;4.13;;;1.80;;
16416;SDS011;8317;52.186;5.688;2022-08-11T13:53:58;3.85;;;1.85;;
16416;SDS011;8317;52.186;5.688;2022-08-11T13:56:27;3.42;;;1.90;;
16416;SDS011;8317;52.186;5.688;2022-08-11T13:58:56;2.75;;;1.95;;
16416;SDS011;8317;52.186;5.688;2022-08-11T14:01:27;4.13;;;1.70;;
16416;SDS011;8317;52.186;5.688;2022-08-11T14:03:57;2.13;;;1.90;;
16416;SDS011;8317;52.186;5.688;2022-08-11T14:06:30;2.20;;;1.90;;
16416;SDS011;8317;52.186;5.688;2022-08-11T14:08:58;4.22;;;2.10;;
16416;SDS011;8317;52.186;5.688;2022-08-11T14:11:27;1.95;;;1.85;;
16416;SDS011;8317;52.186;5.688;2022-08-11T14:14:14;3.67;;;2.10;;
16416;SDS011;8317;52.186;5.688;2022-08-11T14:16:49;4.60;;;1.90;;
16416;SDS011;8317;52.186;5.688;2022-08-11T14:19:19;4.88;;;2.00;;
16416;SDS011;8317;52.186;5.688;2022-08-11T14:21:49;1.92;;;1.75;;
16416;SDS011;8317;52.186;5.688;2022-08-11T14:24:33;5.28;;;2.20;;
16416;SDS011;8317;52.186;5.688;2022-08-11T14:27:03;4.03;;;1.80;;
16416;SDS011;8317;52.186;5.688;2022-08-11T14:29:31;2.75;;;1.85;;
16416;SDS011;8317;52.186;5.688;2022-08-11T14:32:04;4.57;;;2.17;;
16416;SDS011;8317;52.186;5.688;2022-08-11T14:34:34;3.78;;;2.10;;
16416;SDS011;8317;52.186;5.688;2022-08-11T14:37:04;1.60;;;1.50;;
16416;SDS011;8317;52.186;5.688;2022-08-11T14:39:37;2.20;;;1.65;;
16416;SDS011;8317;52.186;5.688;2022-08-11T14:42:06;5.55;;;1.85;;
16416;SDS011;8317;52.186;5.688;2022-08-11T14:44:53;5.90;;;1.90;;
16416;SDS011;8317;52.186;5.688;2022-08-11T14:47:42;5.47;;;1.85;;
16416;SDS011;8317;52.186;5.688;2022-08-11T14:50:15;5.72;;;2.15;;
16416;SDS011;8317;52.186;5.688;2022-08-11T14:52:48;2.22;;;1.90;;
16416;SDS011;8317;52.186;5.688;2022-08-11T14:55:16;3.28;;;1.90;;
16416;SDS011;8317;52.186;5.688;2022-08-11T14:58:02;3.47;;;1.98;;
16416;SDS011;8317;52.186;5.688;2022-08-11T15:00:30;2.50;;;1.80;;
16416;SDS011;8317;52.186;5.688;2022-08-11T15:03:00;3.60;;;1.80;;
16416;SDS011;8317;52.186;5.688;2022-08-11T15:05:34;5.47;;;2.10;;
16416;SDS011;8317;52.186;5.688;2022-08-11T15:08:02;2.10;;;2.00;;
16416;SDS011;8317;52.186;5.688;2022-08-11T15:10:30;4.13;;;1.90;;
16416;SDS011;8317;52.186;5.688;2022-08-11T15:12:57;3.83;;;1.85;;
16416;SDS011;8317;52.186;5.688;2022-08-11T15:15:25;2.17;;;1.80;;
16416;SDS011;8317;52.186;5.688;2022-08-11T15:18:12;6.03;;;1.80;;
16416;SDS011;8317;52.186;5.688;2022-08-11T15:20:42;3.13;;;1.50;;
16416;SDS011;8317;52.186;5.688;2022-08-11T15:23:27;2.22;;;1.75;;
16416;SDS011;8317;52.186;5.688;2022-08-11T15:26:13;1.88;;;1.77;;
16416;SDS011;8317;52.186;5.688;2022-08-11T15:28:43;2.10;;;1.83;;
16416;SDS011;8317;52.186;5.688;2022-08-11T15:31:29;4.82;;;2.17;;
16416;SDS011;8317;52.186;5.688;2022-08-11T15:34:16;3.10;;;2.17;;
16416;SDS011;8317;52.186;5.688;2022-08-11T15:37:06;3.90;;;2.28;;
16416;SDS011;8317;52.186;5.688;2022-08-11T15:39:56;4.72;;;2.78;;
16416;SDS011;8317;52.186;5.688;2022-08-11T15:42:46;4.38;;;2.70;;
16416;SDS011;8317;52.186;5.688;2022-08-11T15:45:34;6.55;;;2.22;;
16416;SDS011;8317;52.186;5.688;2022-08-11T15:48:15;5.72;;;3.28;;
16416;SDS011;8317;52.186;5.688;2022-08-11T15:50:49;5.22;;;3.08;;
16416;SDS011;8317;52.186;5.688;2022-08-11T15:53:23;4.43;;;2.17;;
16416;SDS011;8317;52.186;5.688;2022-08-11T15:55:53;3.92;;;2.10;;
16416;SDS011;8317;52.186;5.688;2022-08-11T15:58:20;3.72;;;2.00;;
16416;SDS011;8317;52.186;5.688;2022-08-11T16:01:08;4.45;;;1.70;;
16416;SDS011;8317;52.186;5.688;2022-08-11T16:03:56;2.90;;;2.08;;
16416;SDS011;8317;52.186;5.688;2022-08-11T16:06:39;3.53;;;1.90;;
16416;SDS011;8317;52.186;5.688;2022-08-11T16:09:13;3.50;;;2.00;;
16416;SDS011;8317;52.186;5.688;2022-08-11T16:11:43;3.15;;;1.83;;
16416;SDS011;8317;52.186;5.688;2022-08-11T16:14:11;2.70;;;1.58;;
16416;SDS011;8317;52.186;5.688;2022-08-11T16:16:57;4.50;;;2.00;;
16416;SDS011;8317;52.186;5.688;2022-08-11T16:19:26;2.35;;;1.80;;
16416;SDS011;8317;52.186;5.688;2022-08-11T16:22:01;5.25;;;2.10;;
16416;SDS011;8317;52.186;5.688;2022-08-11T16:24:32;3.80;;;1.75;;
16416;SDS011;8317;52.186;5.688;2022-08-11T16:27:00;3.25;;;1.80;;
16416;SDS011;8317;52.186;5.688;2022-08-11T16:29:29;2.58;;;2.08;;
16416;SDS011;8317;52.186;5.688;2022-08-11T16:32:01;5.63;;;1.40;;
16416;SDS011;8317;52.186;5.688;2022-08-11T16:34:45;1.70;;;1.60;;
16416;SDS011;8317;52.186;5.688;2022-08-11T16:37:35;2.83;;;1.58;;
16416;SDS011;8317;52.186;5.688;2022-08-11T16:40:20;3.97;;;1.92;;
16416;SDS011;8317;52.186;5.688;2022-08-11T16:42:48;2.85;;;1.90;;
16416;SDS011;8317;52.186;5.688;2022-08-11T16:45:35;4.18;;;2.00;;
16416;SDS011;8317;52.186;5.688;2022-08-11T16:48:21;2.10;;;1.90;;
16416;SDS011;8317;52.186;5.688;2022-08-11T16:50:52;3.35;;;1.83;;
16416;SDS011;8317;52.186;5.688;2022-08-11T16:53:21;2.60;;;1.92;;
16416;SDS011;8317;52.186;5.688;2022-08-11T16:55:48;3.05;;;1.70;;
16416;SDS011;8317;52.186;5.688;2022-08-11T16:58:17;4.40;;;2.00;;
16416;SDS011;8317;52.186;5.688;2022-08-11T17:01:04;3.10;;;1.92;;
16416;SDS011;8317;52.186;5.688;2022-08-11T17:03:32;1.70;;;1.60;;
16416;SDS011;8317;52.186;5.688;2022-08-11T17:06:18;7.20;;;2.00;;
16416;SDS011;8317;52.186;5.688;2022-08-11T17:09:05;1.70;;;1.52;;
16416;SDS011;8317;52.186;5.688;2022-08-11T17:11:54;1.70;;;1.60;;
16416;SDS011;8317;52.186;5.688;2022-08-11T17:14:40;3.88;;;1.63;;
16416;SDS011;8317;52.186;5.688;2022-08-11T17:17:12;5.88;;;1.60;;
16416;SDS011;8317;52.186;5.688;2022-08-11T17:19:41;4.28;;;1.77;;